Terminal Aerodrome Forecast
Issued by NWS Goodland, KS

Home | Current Version | Previous Version | Text Only | Print | Product List | Glossary On
Versions: 1 2 3 4 5 6 7 8 9 10 11 12 13 14 15 16 17 18 19 20 21 22 23 24
000
FTUS43 KGLD 281315 AAC
TAFGLD
TAF AMD
KGLD 281315Z 2813/2912 25009KT 6SM BR OVC007
      TEMPO 2813/2815 21014G22KT
     FM281600 16007KT P6SM OVC006
     FM281800 16007KT P6SM BKN015
     FM281900 16008KT P6SM SCT015 SCT025
     FM282300 11012KT P6SM VCTS BKN050CB
      TEMPO 2823/2903 3SM +TSRA BR
     FM290500 32009KT P6SM SCT004 BKN300=

USA.gov is the U.S. government's official web portal to all federal, state and local government web resources and services.